ITY963 LGSR-LICA
Flight info
| Callsign | ITY963 |
|---|---|
| Flight time | 1h 22m |
| Altitude | 36000 |
| Route | NETIS M601 CRN |
| Aircraft | A320/M-SDE3FGHIRWY/LB1 |
Departure
| Time | 2026-04-21 23:40 |
|---|---|
| Airport | Santorini International Airport (LGSR) |
Arrival
| Time | 2026-04-22 01:03 |
|---|---|
| Airport | Lamezia Terme Sant'Eufemia International Airport (LICA) |
| Time | Latitude | Longitude | Altitude | Speed | Heading |
|---|---|---|---|---|---|
| 2026-04-21 23:14 | 36.40420 | 25.47344 | 91 ft | 0 kts | 249° |
| 2026-04-21 23:28 | 36.40425 | 25.47364 | 90 ft | 4 kts | 259° |
| 2026-04-21 23:28 | 36.40427 | 25.47397 | 92 ft | 4 kts | 282° |
| 2026-04-21 23:28 | 36.40420 | 25.47424 | 92 ft | 2 kts | 290° |
| 2026-04-21 23:28 | 36.40416 | 25.47453 | 90 ft | 4 kts | 253° |
| 2026-04-21 23:29 | 36.40426 | 25.47482 | 92 ft | 3 kts | 248° |
| 2026-04-21 23:29 | 36.40427 | 25.47486 | 90 ft | 0 kts | 249° |
| 2026-04-21 23:31 | 36.40423 | 25.47472 | 92 ft | 5 kts | 249° |
| 2026-04-21 23:31 | 36.40382 | 25.47431 | 90 ft | 10 kts | 181° |
| 2026-04-21 23:31 | 36.40321 | 25.47456 | 90 ft | 9 kts | 160° |
| 2026-04-21 23:31 | 36.40268 | 25.47489 | 92 ft | 8 kts | 126° |
| 2026-04-21 23:32 | 36.40274 | 25.47551 | 90 ft | 7 kts | 76° |
| 2026-04-21 23:32 | 36.40249 | 25.47592 | 92 ft | 6 kts | 157° |
| 2026-04-21 23:32 | 36.40203 | 25.47613 | 89 ft | 9 kts | 160° |
| 2026-04-21 23:32 | 36.40136 | 25.47643 | 91 ft | 12 kts | 160° |
| 2026-04-21 23:33 | 36.40048 | 25.47686 | 87 ft | 15 kts | 158° |
| 2026-04-21 23:33 | 36.39937 | 25.47739 | 85 ft | 19 kts | 160° |
| 2026-04-21 23:33 | 36.39807 | 25.47800 | 86 ft | 22 kts | 159° |
| 2026-04-21 23:33 | 36.39652 | 25.47873 | 80 ft | 26 kts | 158° |
| 2026-04-21 23:34 | 36.39494 | 25.47947 | 71 ft | 20 kts | 159° |
| 2026-04-21 23:34 | 36.39356 | 25.48013 | 64 ft | 23 kts | 159° |
| 2026-04-21 23:34 | 36.39216 | 25.48079 | 64 ft | 17 kts | 159° |
| 2026-04-21 23:34 | 36.39105 | 25.48133 | 57 ft | 13 kts | 159° |
| 2026-04-21 23:35 | 36.39022 | 25.48173 | 52 ft | 10 kts | 148° |
| 2026-04-21 23:35 | 36.39007 | 25.48227 | 56 ft | 3 kts | 76° |
| 2026-04-21 23:35 | 36.39009 | 25.48235 | 56 ft | 0 kts | 72° |
| 2026-04-21 23:36 | 36.39022 | 25.48283 | 55 ft | 16 kts | 71° |
| 2026-04-21 23:36 | 36.39060 | 25.48335 | 59 ft | 5 kts | 312° |
| 2026-04-21 23:36 | 36.39074 | 25.48319 | 59 ft | 1 kts | 325° |
| 2026-04-21 23:37 | 36.39075 | 25.48318 | 59 ft | 0 kts | 327° |
| 2026-04-21 23:37 | 36.39079 | 25.48315 | 59 ft | 1 kts | 327° |
| 2026-04-21 23:37 | 36.39095 | 25.48306 | 56 ft | 4 kts | 338° |
| 2026-04-21 23:38 | 36.39099 | 25.48304 | 60 ft | 0 kts | 339° |
| 2026-04-21 23:39 | 36.39280 | 25.48217 | 62 ft | 67 kts | 339° |
| 2026-04-21 23:40 | 36.39949 | 25.47895 | 85 ft | 136 kts | 339° |
| 2026-04-21 23:40 | 36.40982 | 25.47413 | 329 ft | 169 kts | 336° |
| 2026-04-21 23:40 | 36.42114 | 25.46959 | 1049 ft | 173 kts | 340° |
| 2026-04-21 23:40 | 36.43309 | 25.46602 | 1641 ft | 184 kts | 342° |
| 2026-04-21 23:41 | 36.44615 | 25.46207 | 2056 ft | 202 kts | 342° |
| 2026-04-21 23:41 | 36.46051 | 25.45799 | 2428 ft | 224 kts | 345° |
| 2026-04-21 23:41 | 36.47497 | 25.45412 | 3090 ft | 229 kts | 344° |
| 2026-04-21 23:41 | 36.49050 | 25.44995 | 4027 ft | 226 kts | 345° |
| 2026-04-21 23:42 | 36.50588 | 25.44591 | 4902 ft | 226 kts | 344° |
| 2026-04-21 23:42 | 36.52015 | 25.43830 | 5679 ft | 224 kts | 318° |
| 2026-04-21 23:42 | 36.52932 | 25.42309 | 6430 ft | 222 kts | 288° |
| 2026-04-21 23:42 | 36.53111 | 25.40412 | 7183 ft | 224 kts | 263° |
| 2026-04-21 23:43 | 36.52894 | 25.38482 | 7948 ft | 228 kts | 262° |
| 2026-04-21 23:43 | 36.52673 | 25.36517 | 8705 ft | 231 kts | 263° |
| 2026-04-21 23:43 | 36.52451 | 25.34524 | 9445 ft | 234 kts | 263° |
| 2026-04-21 23:43 | 36.52229 | 25.32513 | 10201 ft | 236 kts | 263° |
| 2026-04-21 23:44 | 36.52007 | 25.30488 | 10971 ft | 237 kts | 263° |
| 2026-04-21 23:44 | 36.51836 | 25.28448 | 11712 ft | 238 kts | 272° |
| 2026-04-21 23:44 | 36.52134 | 25.26426 | 12431 ft | 241 kts | 290° |
| 2026-04-21 23:44 | 36.53005 | 25.24538 | 12712 ft | 265 kts | 306° |
| 2026-04-21 23:45 | 36.54186 | 25.22647 | 12955 ft | 288 kts | 306° |
| 2026-04-21 23:45 | 36.56848 | 25.18360 | 13322 ft | 334 kts | 306° |
| 2026-04-21 23:45 | 36.58296 | 25.16016 | 13687 ft | 347 kts | 306° |
| 2026-04-21 23:46 | 36.59777 | 25.13614 | 14305 ft | 352 kts | 306° |
| 2026-04-21 23:46 | 36.61273 | 25.11183 | 14978 ft | 355 kts | 306° |
| 2026-04-21 23:46 | 36.62781 | 25.08733 | 15631 ft | 358 kts | 306° |
| 2026-04-21 23:46 | 36.64302 | 25.06259 | 16284 ft | 361 kts | 306° |
| 2026-04-21 23:47 | 36.65832 | 25.03771 | 16917 ft | 364 kts | 306° |
| 2026-04-21 23:47 | 36.67369 | 25.01263 | 17547 ft | 365 kts | 306° |
| 2026-04-21 23:47 | 36.68893 | 24.98714 | 18149 ft | 368 kts | 301° |
| 2026-04-21 23:47 | 36.70047 | 24.95870 | 18731 ft | 369 kts | 289° |
| 2026-04-21 23:48 | 36.70661 | 24.92771 | 19311 ft | 371 kts | 277° |
| 2026-04-21 23:48 | 36.70964 | 24.89564 | 19910 ft | 373 kts | 277° |
| 2026-04-21 23:48 | 36.71281 | 24.86347 | 20482 ft | 376 kts | 277° |
| 2026-04-21 23:48 | 36.71612 | 24.83104 | 21022 ft | 379 kts | 277° |
| 2026-04-21 23:49 | 36.71949 | 24.79841 | 21526 ft | 381 kts | 277° |
| 2026-04-21 23:49 | 36.72289 | 24.76553 | 22030 ft | 384 kts | 277° |
| 2026-04-21 23:49 | 36.72627 | 24.73244 | 22506 ft | 386 kts | 277° |
| 2026-04-21 23:49 | 36.72965 | 24.69910 | 22979 ft | 389 kts | 277° |
| 2026-04-21 23:50 | 36.73303 | 24.66558 | 23422 ft | 391 kts | 277° |
| 2026-04-21 23:50 | 36.73641 | 24.63183 | 23848 ft | 393 kts | 277° |
| 2026-04-21 23:50 | 36.73977 | 24.59792 | 24267 ft | 396 kts | 277° |
| 2026-04-21 23:50 | 36.74317 | 24.56375 | 24661 ft | 398 kts | 277° |
| 2026-04-21 23:51 | 36.74703 | 24.52953 | 25039 ft | 400 kts | 281° |
| 2026-04-21 23:51 | 36.75481 | 24.49608 | 25413 ft | 404 kts | 290° |
| 2026-04-21 23:51 | 36.76508 | 24.46342 | 25784 ft | 406 kts | 290° |
| 2026-04-21 23:51 | 36.77538 | 24.43055 | 26148 ft | 408 kts | 290° |
| 2026-04-21 23:52 | 36.78569 | 24.39749 | 26498 ft | 410 kts | 290° |
| 2026-04-21 23:52 | 36.79602 | 24.36430 | 26850 ft | 411 kts | 290° |
| 2026-04-21 23:52 | 36.80639 | 24.33094 | 27181 ft | 413 kts | 290° |
| 2026-04-21 23:52 | 36.81678 | 24.29752 | 27514 ft | 414 kts | 290° |
| 2026-04-21 23:53 | 36.82719 | 24.26398 | 27825 ft | 416 kts | 290° |
| 2026-04-21 23:53 | 36.83766 | 24.23015 | 28125 ft | 418 kts | 290° |
| 2026-04-21 23:53 | 36.84815 | 24.19621 | 28411 ft | 420 kts | 290° |
| 2026-04-21 23:53 | 36.85878 | 24.16172 | 28681 ft | 421 kts | 290° |
| 2026-04-21 23:54 | 36.86930 | 24.12747 | 28949 ft | 422 kts | 290° |
| 2026-04-21 23:54 | 36.87983 | 24.09317 | 29193 ft | 423 kts | 290° |
| 2026-04-21 23:54 | 36.89039 | 24.05885 | 29444 ft | 425 kts | 290° |
| 2026-04-21 23:54 | 36.90103 | 24.02433 | 29685 ft | 426 kts | 290° |
| 2026-04-21 23:55 | 36.91168 | 23.98978 | 29958 ft | 425 kts | 290° |
| 2026-04-21 23:55 | 36.92229 | 23.95534 | 30253 ft | 425 kts | 290° |
| 2026-04-21 23:55 | 36.93284 | 23.92095 | 30554 ft | 424 kts | 290° |
| 2026-04-21 23:55 | 36.94337 | 23.88660 | 30860 ft | 423 kts | 290° |
| 2026-04-21 23:56 | 36.95388 | 23.85233 | 31152 ft | 422 kts | 290° |
| 2026-04-21 23:56 | 36.96436 | 23.81814 | 31457 ft | 421 kts | 290° |
| 2026-04-21 23:56 | 36.97481 | 23.78399 | 31759 ft | 420 kts | 290° |
| 2026-04-21 23:56 | 36.98520 | 23.74994 | 32063 ft | 418 kts | 290° |
| 2026-04-21 23:57 | 36.99553 | 23.71597 | 32358 ft | 417 kts | 290° |
| 2026-04-21 23:57 | 37.00582 | 23.68208 | 32652 ft | 416 kts | 290° |
| 2026-04-21 23:57 | 37.01610 | 23.64826 | 32940 ft | 415 kts | 290° |
| 2026-04-21 23:57 | 37.02634 | 23.61457 | 33230 ft | 414 kts | 290° |
| 2026-04-21 23:58 | 37.03656 | 23.58093 | 33513 ft | 413 kts | 290° |
| 2026-04-21 23:58 | 37.04672 | 23.54737 | 33795 ft | 412 kts | 290° |
| 2026-04-21 23:58 | 37.05684 | 23.51392 | 34079 ft | 411 kts | 290° |
| 2026-04-21 23:58 | 37.06692 | 23.48049 | 34357 ft | 410 kts | 290° |
| 2026-04-21 23:59 | 37.07696 | 23.44712 | 34618 ft | 409 kts | 290° |
| 2026-04-21 23:59 | 37.08698 | 23.41390 | 34873 ft | 408 kts | 290° |
| 2026-04-21 23:59 | 37.09702 | 23.38066 | 35104 ft | 408 kts | 290° |
| 2026-04-21 23:59 | 37.10704 | 23.34741 | 35336 ft | 407 kts | 289° |
| 2026-04-22 00:00 | 37.11701 | 23.31422 | 35567 ft | 407 kts | 289° |
| 2026-04-22 00:00 | 37.12695 | 23.28102 | 35783 ft | 407 kts | 289° |
| 2026-04-22 00:00 | 37.13687 | 23.24785 | 35941 ft | 407 kts | 289° |
| 2026-04-22 00:01 | 37.15685 | 23.18100 | 35979 ft | 407 kts | 289° |
| 2026-04-22 00:01 | 37.17660 | 23.11456 | 35980 ft | 407 kts | 289° |
| 2026-04-22 00:02 | 37.19302 | 23.05935 | 35979 ft | 407 kts | 289° |
| 2026-04-22 00:02 | 37.21274 | 22.99290 | 35978 ft | 407 kts | 289° |
| 2026-04-22 00:03 | 37.23239 | 22.92638 | 35981 ft | 407 kts | 289° |
| 2026-04-22 00:03 | 37.25204 | 22.85986 | 35983 ft | 406 kts | 289° |
| 2026-04-22 00:04 | 37.27165 | 22.79331 | 35981 ft | 407 kts | 289° |
| 2026-04-22 00:04 | 37.29128 | 22.72672 | 35992 ft | 407 kts | 289° |
| 2026-04-22 00:05 | 37.31076 | 22.66023 | 35986 ft | 406 kts | 289° |
| 2026-04-22 00:05 | 37.33027 | 22.59340 | 35985 ft | 406 kts | 289° |
| 2026-04-22 00:06 | 37.34981 | 22.52628 | 35985 ft | 406 kts | 289° |
| 2026-04-22 00:06 | 37.36921 | 22.45966 | 36003 ft | 405 kts | 290° |
| 2026-04-22 00:07 | 37.38847 | 22.39334 | 36019 ft | 403 kts | 290° |
| 2026-04-22 00:07 | 37.40865 | 22.32798 | 36019 ft | 402 kts | 296° |
| 2026-04-22 00:08 | 37.43373 | 22.26504 | 36020 ft | 401 kts | 296° |
| 2026-04-22 00:08 | 37.45857 | 22.20237 | 36016 ft | 400 kts | 296° |
| 2026-04-22 00:09 | 37.48335 | 22.13978 | 36014 ft | 399 kts | 296° |
| 2026-04-22 00:09 | 37.50812 | 22.07729 | 36012 ft | 399 kts | 296° |
| 2026-04-22 00:10 | 37.53273 | 22.01473 | 36007 ft | 398 kts | 296° |
| 2026-04-22 00:10 | 37.55728 | 21.95220 | 36008 ft | 398 kts | 296° |
| 2026-04-22 00:11 | 37.58183 | 21.88970 | 36010 ft | 398 kts | 296° |
| 2026-04-22 00:11 | 37.60636 | 21.82722 | 36007 ft | 397 kts | 296° |
| 2026-04-22 00:12 | 37.63077 | 21.76472 | 36007 ft | 397 kts | 296° |
| 2026-04-22 00:12 | 37.65519 | 21.70205 | 36006 ft | 397 kts | 295° |
| 2026-04-22 00:13 | 37.67946 | 21.63952 | 36011 ft | 397 kts | 295° |
| 2026-04-22 00:13 | 37.70379 | 21.57715 | 36012 ft | 397 kts | 295° |
| 2026-04-22 00:14 | 37.72829 | 21.51408 | 36008 ft | 396 kts | 295° |
| 2026-04-22 00:14 | 37.75251 | 21.45155 | 36008 ft | 396 kts | 295° |
| 2026-04-22 00:15 | 37.77667 | 21.38893 | 36007 ft | 396 kts | 295° |
| 2026-04-22 00:15 | 37.80084 | 21.32623 | 36002 ft | 397 kts | 295° |
| 2026-04-22 00:16 | 37.82497 | 21.26354 | 36003 ft | 396 kts | 295° |
| 2026-04-22 00:16 | 37.84908 | 21.20077 | 36007 ft | 396 kts | 295° |
| 2026-04-22 00:17 | 37.87307 | 21.13797 | 36010 ft | 397 kts | 295° |
| 2026-04-22 00:17 | 37.89708 | 21.07506 | 36007 ft | 397 kts | 295° |
| 2026-04-22 00:18 | 37.92110 | 21.01222 | 36009 ft | 396 kts | 295° |
| 2026-04-22 00:18 | 37.94503 | 20.94937 | 36010 ft | 396 kts | 295° |
| 2026-04-22 00:19 | 37.96897 | 20.88654 | 36011 ft | 396 kts | 295° |
| 2026-04-22 00:19 | 37.99284 | 20.82373 | 36010 ft | 395 kts | 295° |
| 2026-04-22 00:20 | 38.01659 | 20.76088 | 36012 ft | 395 kts | 295° |
| 2026-04-22 00:20 | 38.04028 | 20.69806 | 36012 ft | 395 kts | 295° |
| 2026-04-22 00:21 | 38.06397 | 20.63525 | 36014 ft | 394 kts | 295° |
| 2026-04-22 00:21 | 38.08758 | 20.57245 | 36013 ft | 394 kts | 295° |
| 2026-04-22 00:22 | 38.11122 | 20.50914 | 36013 ft | 394 kts | 292° |
| 2026-04-22 00:22 | 38.12987 | 20.44381 | 36012 ft | 394 kts | 289° |
| 2026-04-22 00:23 | 38.14800 | 20.37823 | 36011 ft | 394 kts | 289° |
| 2026-04-22 00:23 | 38.16615 | 20.31260 | 36011 ft | 394 kts | 289° |
| 2026-04-22 00:24 | 38.18418 | 20.24695 | 36006 ft | 394 kts | 289° |
| 2026-04-22 00:24 | 38.20217 | 20.18129 | 36008 ft | 393 kts | 289° |
| 2026-04-22 00:25 | 38.22012 | 20.11568 | 36006 ft | 393 kts | 289° |
| 2026-04-22 00:25 | 38.23808 | 20.05005 | 36005 ft | 393 kts | 289° |
| 2026-04-22 00:26 | 38.25594 | 19.98453 | 36002 ft | 393 kts | 289° |
| 2026-04-22 00:26 | 38.27383 | 19.91880 | 36000 ft | 393 kts | 289° |
| 2026-04-22 00:27 | 38.29169 | 19.85311 | 36003 ft | 393 kts | 289° |
| 2026-04-22 00:27 | 38.30945 | 19.78726 | 36004 ft | 393 kts | 289° |
| 2026-04-22 00:28 | 38.32710 | 19.72143 | 36008 ft | 393 kts | 289° |
| 2026-04-22 00:28 | 38.34476 | 19.65555 | 36012 ft | 393 kts | 289° |
| 2026-04-22 00:29 | 38.36244 | 19.58965 | 36006 ft | 393 kts | 289° |
| 2026-04-22 00:29 | 38.38010 | 19.52371 | 36005 ft | 393 kts | 289° |
| 2026-04-22 00:30 | 38.39771 | 19.45772 | 35996 ft | 393 kts | 289° |
| 2026-04-22 00:30 | 38.41538 | 19.39128 | 35988 ft | 393 kts | 289° |
| 2026-04-22 00:31 | 38.43287 | 19.32513 | 35981 ft | 393 kts | 288° |
| 2026-04-22 00:31 | 38.45031 | 19.25907 | 35972 ft | 393 kts | 289° |
| 2026-04-22 00:32 | 38.46779 | 19.19304 | 35968 ft | 393 kts | 289° |
| 2026-04-22 00:32 | 38.48522 | 19.12694 | 35970 ft | 393 kts | 288° |
| 2026-04-22 00:33 | 38.50254 | 19.06088 | 35969 ft | 393 kts | 288° |
| 2026-04-22 00:33 | 38.51980 | 18.99470 | 35970 ft | 392 kts | 288° |
| 2026-04-22 00:34 | 38.53701 | 18.92858 | 35969 ft | 392 kts | 288° |
| 2026-04-22 00:34 | 38.55415 | 18.86235 | 35967 ft | 392 kts | 288° |
| 2026-04-22 00:35 | 38.57127 | 18.79617 | 35966 ft | 392 kts | 288° |
| 2026-04-22 00:35 | 38.58839 | 18.72993 | 35965 ft | 392 kts | 288° |
| 2026-04-22 00:36 | 38.60265 | 18.67452 | 35962 ft | 392 kts | 288° |
| 2026-04-22 00:36 | 38.61962 | 18.60837 | 35955 ft | 391 kts | 288° |
| 2026-04-22 00:37 | 38.63660 | 18.54225 | 35950 ft | 392 kts | 288° |
| 2026-04-22 00:37 | 38.65357 | 18.47602 | 35949 ft | 392 kts | 288° |
| 2026-04-22 00:38 | 38.67042 | 18.40974 | 35950 ft | 392 kts | 288° |
| 2026-04-22 00:38 | 38.68725 | 18.34349 | 35953 ft | 392 kts | 288° |
| 2026-04-22 00:39 | 38.70411 | 18.27706 | 35666 ft | 395 kts | 288° |
| 2026-04-22 00:39 | 38.71255 | 18.24365 | 35111 ft | 391 kts | 288° |
| 2026-04-22 00:39 | 38.72081 | 18.21088 | 34563 ft | 387 kts | 288° |
| 2026-04-22 00:39 | 38.72904 | 18.17800 | 34010 ft | 383 kts | 288° |
| 2026-04-22 00:40 | 38.73711 | 18.14563 | 33458 ft | 380 kts | 288° |
| 2026-04-22 00:40 | 38.74507 | 18.11361 | 32908 ft | 376 kts | 288° |
| 2026-04-22 00:40 | 38.75297 | 18.08180 | 32350 ft | 374 kts | 288° |
| 2026-04-22 00:40 | 38.76083 | 18.05014 | 31805 ft | 371 kts | 288° |
| 2026-04-22 00:41 | 38.76859 | 18.01880 | 31254 ft | 369 kts | 288° |
| 2026-04-22 00:41 | 38.77632 | 17.98755 | 30702 ft | 366 kts | 288° |
| 2026-04-22 00:41 | 38.78399 | 17.95654 | 30151 ft | 364 kts | 288° |
| 2026-04-22 00:41 | 38.79163 | 17.92572 | 29600 ft | 362 kts | 288° |
| 2026-04-22 00:42 | 38.79920 | 17.89511 | 29047 ft | 360 kts | 288° |
| 2026-04-22 00:42 | 38.80673 | 17.86455 | 28494 ft | 358 kts | 287° |
| 2026-04-22 00:42 | 38.81419 | 17.83419 | 27947 ft | 356 kts | 287° |
| 2026-04-22 00:42 | 38.82161 | 17.80392 | 27397 ft | 355 kts | 287° |
| 2026-04-22 00:43 | 38.82899 | 17.77383 | 26844 ft | 354 kts | 287° |
| 2026-04-22 00:43 | 38.83649 | 17.74335 | 26284 ft | 353 kts | 287° |
| 2026-04-22 00:43 | 38.84385 | 17.71344 | 25733 ft | 352 kts | 287° |
| 2026-04-22 00:43 | 38.85118 | 17.68351 | 25181 ft | 351 kts | 287° |
| 2026-04-22 00:44 | 38.85848 | 17.65369 | 24624 ft | 350 kts | 287° |
| 2026-04-22 00:44 | 38.86574 | 17.62393 | 24077 ft | 348 kts | 288° |
| 2026-04-22 00:44 | 38.87296 | 17.59433 | 23524 ft | 347 kts | 287° |
| 2026-04-22 00:44 | 38.88015 | 17.56473 | 22975 ft | 347 kts | 287° |
| 2026-04-22 00:45 | 38.88731 | 17.53519 | 22424 ft | 346 kts | 287° |
| 2026-04-22 00:45 | 38.89444 | 17.50574 | 21874 ft | 346 kts | 287° |
| 2026-04-22 00:45 | 38.90160 | 17.47629 | 21322 ft | 345 kts | 287° |
| 2026-04-22 00:45 | 38.90874 | 17.44695 | 20770 ft | 344 kts | 287° |
| 2026-04-22 00:46 | 38.91586 | 17.41763 | 20220 ft | 343 kts | 287° |
| 2026-04-22 00:46 | 38.92293 | 17.38840 | 19670 ft | 343 kts | 287° |
| 2026-04-22 00:46 | 38.92995 | 17.35920 | 19118 ft | 341 kts | 287° |
| 2026-04-22 00:46 | 38.93691 | 17.33016 | 18572 ft | 341 kts | 287° |
| 2026-04-22 00:47 | 38.94389 | 17.30104 | 18009 ft | 340 kts | 287° |
| 2026-04-22 00:47 | 38.95083 | 17.27206 | 17464 ft | 339 kts | 287° |
| 2026-04-22 00:47 | 38.95778 | 17.24319 | 16912 ft | 338 kts | 287° |
| 2026-04-22 00:47 | 38.96473 | 17.21435 | 16367 ft | 338 kts | 287° |
| 2026-04-22 00:48 | 38.97163 | 17.18559 | 15805 ft | 337 kts | 287° |
| 2026-04-22 00:48 | 38.97852 | 17.15680 | 15256 ft | 336 kts | 287° |
| 2026-04-22 00:48 | 38.98534 | 17.12812 | 14707 ft | 335 kts | 286° |
| 2026-04-22 00:48 | 38.98938 | 17.09866 | 14152 ft | 335 kts | 274° |
| 2026-04-22 00:49 | 38.98820 | 17.06879 | 13601 ft | 336 kts | 262° |
| 2026-04-22 00:49 | 38.98181 | 17.03994 | 13050 ft | 338 kts | 250° |
| 2026-04-22 00:49 | 38.97249 | 17.01223 | 12496 ft | 336 kts | 249° |
| 2026-04-22 00:49 | 38.96322 | 16.98467 | 11944 ft | 335 kts | 249° |
| 2026-04-22 00:50 | 38.95406 | 16.95725 | 11394 ft | 333 kts | 249° |
| 2026-04-22 00:50 | 38.94484 | 16.92959 | 10835 ft | 331 kts | 249° |
| 2026-04-22 00:50 | 38.93582 | 16.90250 | 10278 ft | 329 kts | 249° |
| 2026-04-22 00:50 | 38.92692 | 16.87585 | 10030 ft | 319 kts | 248° |
| 2026-04-22 00:51 | 38.91933 | 16.85315 | 9994 ft | 304 kts | 248° |
| 2026-04-22 00:51 | 38.91111 | 16.82867 | 10008 ft | 295 kts | 248° |
| 2026-04-22 00:51 | 38.90303 | 16.80449 | 10008 ft | 294 kts | 249° |
| 2026-04-22 00:51 | 38.89496 | 16.78035 | 10011 ft | 299 kts | 249° |
| 2026-04-22 00:52 | 38.88658 | 16.75517 | 10012 ft | 312 kts | 249° |
| 2026-04-22 00:52 | 38.87804 | 16.72948 | 9999 ft | 314 kts | 249° |
| 2026-04-22 00:52 | 38.86947 | 16.70371 | 9979 ft | 314 kts | 249° |
| 2026-04-22 00:52 | 38.86088 | 16.67795 | 9972 ft | 314 kts | 249° |
| 2026-04-22 00:53 | 38.85227 | 16.65216 | 9972 ft | 314 kts | 249° |
| 2026-04-22 00:53 | 38.84368 | 16.62638 | 9970 ft | 314 kts | 248° |
| 2026-04-22 00:53 | 38.83509 | 16.60063 | 9969 ft | 314 kts | 249° |
| 2026-04-22 00:53 | 38.82650 | 16.57489 | 9970 ft | 314 kts | 249° |
| 2026-04-22 00:54 | 38.81981 | 16.54838 | 9968 ft | 312 kts | 263° |
| 2026-04-22 00:54 | 38.81836 | 16.52060 | 9647 ft | 312 kts | 268° |
| 2026-04-22 00:54 | 38.81751 | 16.49325 | 9168 ft | 300 kts | 269° |
| 2026-04-22 00:54 | 38.81682 | 16.46719 | 8714 ft | 286 kts | 269° |
| 2026-04-22 00:55 | 38.81620 | 16.44238 | 8462 ft | 276 kts | 269° |
| 2026-04-22 00:55 | 38.81559 | 16.41779 | 8209 ft | 275 kts | 269° |
| 2026-04-22 00:55 | 38.81432 | 16.37087 | 7444 ft | 253 kts | 268° |
| 2026-04-22 00:56 | 38.81367 | 16.34867 | 6995 ft | 246 kts | 268° |
| 2026-04-22 00:56 | 38.81304 | 16.32712 | 6545 ft | 239 kts | 268° |
| 2026-04-22 00:56 | 38.81244 | 16.30620 | 6091 ft | 232 kts | 268° |
| 2026-04-22 00:56 | 38.81184 | 16.28575 | 5638 ft | 227 kts | 268° |
| 2026-04-22 00:57 | 38.81191 | 16.26576 | 5190 ft | 222 kts | 273° |
| 2026-04-22 00:57 | 38.81313 | 16.24616 | 4734 ft | 219 kts | 276° |
| 2026-04-22 00:57 | 38.81468 | 16.22671 | 4290 ft | 221 kts | 276° |
| 2026-04-22 00:57 | 38.81628 | 16.20661 | 3831 ft | 226 kts | 276° |
| 2026-04-22 00:58 | 38.81784 | 16.18663 | 3386 ft | 230 kts | 276° |
| 2026-04-22 00:58 | 38.81937 | 16.16634 | 2997 ft | 220 kts | 276° |
| 2026-04-22 00:58 | 38.82075 | 16.14735 | 2743 ft | 207 kts | 276° |
| 2026-04-22 00:58 | 38.82220 | 16.12967 | 2552 ft | 192 kts | 276° |
| 2026-04-22 00:59 | 38.82410 | 16.11300 | 2479 ft | 187 kts | 292° |
| 2026-04-22 00:59 | 38.83248 | 16.10072 | 2355 ft | 187 kts | 332° |
| 2026-04-22 00:59 | 38.84521 | 16.09754 | 2250 ft | 190 kts | 359° |
| 2026-04-22 00:59 | 38.85845 | 16.09855 | 2134 ft | 191 kts | 4° |
| 2026-04-22 01:00 | 38.87170 | 16.10027 | 2010 ft | 192 kts | 5° |
| 2026-04-22 01:00 | 38.88466 | 16.10380 | 1862 ft | 185 kts | 24° |
| 2026-04-22 01:00 | 38.89447 | 16.11366 | 1982 ft | 178 kts | 55° |
| 2026-04-22 01:00 | 38.89921 | 16.12809 | 1870 ft | 175 kts | 79° |
| 2026-04-22 01:01 | 38.90171 | 16.14317 | 1682 ft | 171 kts | 76° |
| 2026-04-22 01:01 | 38.90503 | 16.15759 | 1461 ft | 165 kts | 73° |
| 2026-04-22 01:01 | 38.90859 | 16.17135 | 1155 ft | 159 kts | 71° |
| 2026-04-22 01:01 | 38.91126 | 16.18484 | 847 ft | 151 kts | 82° |
| 2026-04-22 01:02 | 38.91110 | 16.19765 | 594 ft | 141 kts | 99° |
| 2026-04-22 01:02 | 38.90921 | 16.20979 | 354 ft | 138 kts | 97° |
| 2026-04-22 01:02 | 38.90777 | 16.22221 | 195 ft | 141 kts | 98° |
| 2026-04-22 01:02 | 38.90632 | 16.23429 | 41 ft | 130 kts | 97° |
| 2026-04-22 01:03 | 38.90532 | 16.24303 | 28 ft | 57 kts | 98° |
| 2026-04-22 01:03 | 38.90506 | 16.24530 | 33 ft | 17 kts | 98° |
| 2026-04-22 01:03 | 38.90487 | 16.24688 | 32 ft | 19 kts | 98° |
| 2026-04-22 01:03 | 38.90506 | 16.24856 | 35 ft | 19 kts | 69° |
| 2026-04-22 01:04 | 38.90559 | 16.25000 | 37 ft | 17 kts | 64° |
| 2026-04-22 01:04 | 38.90651 | 16.25017 | 34 ft | 17 kts | 323° |
| 2026-04-22 01:04 | 38.90714 | 16.24933 | 31 ft | 11 kts | 322° |
| 2026-04-22 01:04 | 38.90759 | 16.24882 | 30 ft | 8 kts | 298° |
| 2026-04-22 01:05 | 38.90767 | 16.24823 | 32 ft | 6 kts | 279° |
| 2026-04-22 01:05 | 38.90774 | 16.24770 | 32 ft | 6 kts | 279° |
| 2026-04-22 01:05 | 38.90780 | 16.24721 | 32 ft | 6 kts | 278° |
| 2026-04-22 01:05 | 38.90785 | 16.24679 | 32 ft | 3 kts | 278° |
| 2026-04-22 01:06 | 38.90796 | 16.24666 | 32 ft | 3 kts | 336° |
| 2026-04-22 01:06 | 38.90824 | 16.24670 | 32 ft | 3 kts | 8° |
| 2026-04-22 01:06 | 38.90844 | 16.24674 | 32 ft | 3 kts | 8° |
| 2026-04-22 01:06 | 38.90851 | 16.24684 | 32 ft | 1 kts | 60° |
| 2026-04-22 01:07 | 38.90853 | 16.24688 | 32 ft | 0 kts | 59° |